Flight Track Log - Related Links

Times and Time Zones

All times are in EDT time to prevent confusion due to time zone crossing. See the UAL4457 flight status page for this flight to view local times or setup timezone preferences in your user account.


Time Position Orientation Groundspeed Altitude Reporting Facility
EDT Latitude Longitude Course Direction KTS MPH feet Rate Location/Type
Mon 05:24:31 PM 37.9750 -84.6828 227° Southwest 221 254 4,700  Level Indianapolis Center
Mon 05:25:32 PM 37.9300 -84.7386 224° Southwest 224 258 7,200 2,488 Climbing Indianapolis Center
Mon 05:26:00 PM 37.8602 -85.0270 241° Southwest  Level FlightAware Approximate
Mon 05:26:34 PM 37.8736 -84.7997 221° Southwest 254 292 9,800  Level Indianapolis Center
Mon 05:27:00 PM 37.8166 -85.1335 247° West  Level FlightAware Approximate
Mon 05:27:36 PM 37.8033 -84.8811 222° Southwest 292 336 11,600  Level Indianapolis Center
Mon 05:28:00 PM 37.7787 -85.2437 241° Southwest  Level FlightAware Approximate
Mon 05:28:38 PM 37.7625 -84.9878 244° Southwest 334 384 13,500  Level Indianapolis Center
Mon 05:29:40 PM 37.7206 -85.0958 244° Southwest 340 391 15,800 2,129 Climbing Indianapolis Center
Mon 05:30:42 PM 37.6789 -85.2039 244° Southwest 342 394 17,900 1,887 Climbing Indianapolis Center
Mon 05:31:44 PM 37.6381 -85.3100 244° Southwest 338 389 19,700 1,790 Climbing Indianapolis Center
Mon 05:32:46 PM 37.5958 -85.4186 244° Southwest 343 395 21,600 1,984 Climbing Indianapolis Center
Mon 05:33:48 PM 37.5550 -85.5236 244° Southwest 339 390 23,800 2,323 Climbing Indianapolis Center
Mon 05:34:50 PM 37.5056 -85.6494 244° Southwest 332 382 26,400 2,177 Climbing Indianapolis Center
Mon 05:35:52 PM 37.4661 -85.7506 244° Southwest 323 372 28,300 1,645 Climbing Indianapolis Center
Mon 05:36:54 PM 37.4261 -85.8508 243° Southwest 319 367 29,800 1,161 Climbing Indianapolis Center
Mon 05:37:56 PM 37.3861 -85.9514 243° Southwest 331 381 30,700 1,306 Climbing Indianapolis Center
Mon 05:38:58 PM 37.3442 -86.0583 244° Southwest 338 389 32,500 1,169 Climbing Indianapolis Center
Mon 05:39:54 PM 37.3006 -86.1669 243° Southwest 339 390 33,000 259 Climbing Memphis Center
Mon 05:40:54 PM 37.2506 -86.2919 243° Southwest 357 411 33,000  Level Memphis Center
Mon 05:41:54 PM 37.2044 -86.4114 244° Southwest 377 434 33,000  Level Memphis Center
Mon 05:42:54 PM 37.1583 -86.5308 244° Southwest 382 440 33,000  Level Memphis Center
Mon 05:43:54 PM 37.1078 -86.6531 243° Southwest 387 445 33,000  Level Memphis Center
Mon 05:44:54 PM 37.0594 -86.7747 244° Southwest 392 451 33,000 250 Level Memphis Center
Mon 05:45:54 PM 37.0086 -86.8939 242° Southwest 397 457 33,500 650 Climbing Memphis Center
Mon 05:46:54 PM 36.9639 -87.0103 244° Southwest 392 451 34,300 750 Climbing Memphis Center
Mon 05:47:54 PM 36.9147 -87.1289 243° Southwest 392 451 35,000 750 Climbing Memphis Center
Mon 05:48:54 PM 36.8678 -87.2425 243° Southwest 392 451 35,800 500 Climbing Memphis Center
Mon 05:49:54 PM 36.8206 -87.3608 244° Southwest 387 445 36,000 100 Climbing Memphis Center
Mon 05:50:54 PM 36.7714 -87.4767 242° Southwest 387 445 36,000  Level Memphis Center
Mon 05:51:54 PM 36.7239 -87.5950 243° Southwest 387 445 36,000  Level Memphis Center
Mon 05:52:54 PM 36.6744 -87.7131 242° Southwest 387 445 36,000  Level Memphis Center
Mon 05:53:54 PM 36.6328 -87.8153 243° Southwest 387 445 36,000  Level Memphis Center
Mon 05:54:54 PM 36.5831 -87.9306 242° Southwest 382 440 36,000  Level Memphis Center
Mon 05:55:54 PM 36.5353 -88.0456 243° Southwest 382 440 36,000  Level Memphis Center
Mon 05:56:54 PM 36.4833 -88.1708 243° Southwest 376 433 36,000  Level Memphis Center
Mon 05:57:54 PM 36.4331 -88.2883 242° Southwest 376 433 36,000  Level Memphis Center
Mon 05:58:54 PM 36.3850 -88.4003 242° Southwest 376 433 36,000  Level Memphis Center
Mon 05:59:54 PM 36.3325 -88.5175 241° Southwest 376 433 36,000  Level Memphis Center
Mon 06:00:54 PM 36.2819 -88.6319 241° Southwest 376 433 36,000  Level Memphis Center
Mon 06:01:54 PM 36.2397 -88.7358 243° Southwest 376 433 36,000  Level Memphis Center
Mon 06:02:54 PM 36.1889 -88.8475 241° Southwest 370 426 36,000  Level Memphis Center
Mon 06:03:54 PM 36.1383 -88.9642 242° Southwest 375 432 36,000  Level Memphis Center
Mon 06:04:54 PM 36.0872 -89.0778 241° Southwest 375 432 36,000  Level Memphis Center
Mon 06:05:54 PM 36.0383 -89.1917 242° Southwest 375 432 36,000  Level Memphis Center
Mon 06:06:54 PM 35.9894 -89.3053 242° Southwest 375 432 36,000  Level Memphis Center
Mon 06:07:54 PM 35.9381 -89.4186 241° Southwest 375 432 36,000  Level Memphis Center
Mon 06:08:54 PM 35.8889 -89.5344 242° Southwest 375 432 36,000  Level Memphis Center
Mon 06:09:54 PM 35.8375 -89.6453 240° Southwest 375 432 36,000  Level Memphis Center
Mon 06:10:54 PM 35.7881 -89.7583 242° Southwest 375 432 36,000  Level Memphis Center
Mon 06:11:54 PM 35.7386 -89.8711 242° Southwest 375 432 36,000  Level Memphis Center
Mon 06:12:54 PM 35.6825 -89.9967 241° Southwest 375 432 36,000  Level Memphis Center
Mon 06:13:54 PM 35.6453 -90.0939 245° Southwest 367 422 36,000  Level Memphis Center
Mon 06:14:54 PM 35.5956 -90.2089 242° Southwest 372 428 36,000  Level Memphis Center
Mon 06:15:54 PM 35.5414 -90.3214 239° Southwest 377 434 36,000  Level Memphis Center
Mon 06:16:54 PM 35.4933 -90.4311 242° Southwest 377 434 36,000  Level Memphis Center
Mon 06:17:54 PM 35.4411 -90.5431 240° Southwest 377 434 36,000  Level Memphis Center
Mon 06:18:54 PM 35.3950 -90.6500 242° Southwest 368 423 36,000  Level Memphis Center
Mon 06:19:54 PM 35.3447 -90.7592 241° Southwest 373 429 36,000  Level Memphis Center
Mon 06:20:54 PM 35.2900 -90.8786 241° Southwest 373 429 36,000  Level Memphis Center
Mon 06:21:54 PM 35.2394 -90.9850 240° Southwest 368 423 36,000  Level Memphis Center
Mon 06:22:54 PM 35.1908 -91.0889 240° Southwest 368 423 36,000  Level Memphis Center
Mon 06:23:54 PM 35.1403 -91.1975 240° Southwest 363 418 36,000  Level Memphis Center
Mon 06:24:54 PM 35.0956 -91.3036 243° Southwest 363 418 36,000  Level Memphis Center
Mon 06:25:54 PM 35.0425 -91.4072 238° Southwest 363 418 36,000  Level Memphis Center
Mon 06:26:54 PM 34.9958 -91.5081 241° Southwest 358 412 36,000  Level Memphis Center
Mon 06:27:54 PM 34.9447 -91.6136 239° Southwest 358 412 36,000  Level Memphis Center
Mon 06:28:54 PM 34.8956 -91.7192 240° Southwest 358 412 36,000  Level Memphis Center
Mon 06:29:54 PM 34.8486 -91.8222 241° Southwest 358 412 36,000  Level Memphis Center
Mon 06:30:54 PM 34.7972 -91.9250 239° Southwest 358 412 36,000  Level Memphis Center
Mon 06:31:54 PM 34.7481 -92.0278 240° Southwest 358 412 36,000  Level Memphis Center
Mon 06:32:54 PM 34.7006 -92.1331 241° Southwest 358 412 36,000  Level Memphis Center
Mon 06:33:54 PM 34.6142 -92.1942 210° Southwest 348 400 36,000  Level Memphis Center
Mon 06:34:54 PM 34.5094 -92.2122 188° South 356 410 36,000  Level Memphis Center
Mon 06:35:54 PM 34.4028 -92.2325 189° South 369 425 36,000  Level Memphis Center
Mon 06:36:54 PM 34.2961 -92.2503 188° South 380 437 36,000  Level Memphis Center
Mon 06:37:54 PM 34.1914 -92.2731 190° South 386 444 36,000  Level Memphis Center
Mon 06:38:54 PM 34.0847 -92.2908 188° South 391 450 36,000  Level Memphis Center
Mon 06:39:54 PM 33.9967 -92.3114 191° South 385 443 36,000  Level Memphis Center
Mon 06:41:51 PM 33.7894 -92.3478 188° South 371 427 36,000  Level Fort Worth Center
Mon 06:42:51 PM 33.6839 -92.3664 188° South 377 434 36,000  Level Fort Worth Center
Mon 06:43:51 PM 33.5761 -92.3850 188° South 383 441 36,000  Level Fort Worth Center
Mon 06:44:51 PM 33.4725 -92.4058 190° South 383 441 36,000  Level Fort Worth Center
Mon 06:45:51 PM 33.3544 -92.4275 189° South 389 448 36,000  Level Fort Worth Center
Mon 06:46:51 PM 33.2425 -92.4461 188° South 399 459 36,000  Level Fort Worth Center
Mon 06:47:51 PM 33.1325 -92.4647 188° South 405 466 36,000  Level Fort Worth Center
Mon 06:48:51 PM 33.0247 -92.4831 188° South 405 466 36,000  Level Fort Worth Center
Mon 06:49:51 PM 32.9192 -92.5039 189° South 405 466 36,000  Level Fort Worth Center
Mon 06:52:11 PM 32.6661 -92.5517 189° South 392 451 36,000  Level Houston Center
Mon 06:53:13 PM 32.5569 -92.5700 188° South 396 456 36,000  Level Houston Center
Mon 06:54:15 PM 32.4483 -92.5903 189° South 394 453 36,000  Level Houston Center
Mon 06:55:17 PM 32.3394 -92.6106 189° South 396 456 36,000  Level Houston Center
Mon 06:56:19 PM 32.2303 -92.6306 189° South 398 458 36,000  Level Houston Center
Mon 06:57:21 PM 32.1214 -92.6500 189° South 396 456 36,000 -387 Level Houston Center
Mon 06:58:23 PM 31.9900 -92.6753 189° South 398 458 35,200 -484 Descending Houston Center
Mon 06:59:25 PM 31.9025 -92.7464 215° Southwest 387 445 35,000 -97 Descending Houston Center
Mon 07:00:27 PM 31.8228 -92.8247 220° Southwest 378 435 35,000  Level Houston Center
Mon 07:01:29 PM 31.7389 -92.9042 219° Southwest 384 442 35,000  Level Houston Center
Mon 07:02:31 PM 31.6589 -92.9831 220° Southwest 382 440 35,000  Level Houston Center
Mon 07:03:33 PM 31.5631 -93.0756 219° Southwest 375 432 35,000  Level Houston Center
Mon 07:04:35 PM 31.4836 -93.1508 219° Southwest 370 426 35,000  Level Houston Center
Mon 07:05:37 PM 31.4022 -93.2264 218° Southwest 375 432 35,000  Level Houston Center
Mon 07:06:39 PM 31.3222 -93.3050 220° Southwest 376 433 35,000  Level Houston Center
Mon 07:07:41 PM 31.2428 -93.3806 219° Southwest 371 427 35,000  Level Houston Center
Mon 07:08:43 PM 31.1611 -93.4572 219° Southwest 377 434 35,000  Level Houston Center
Mon 07:09:44 PM 31.0619 -93.5508 219° Southwest 382 440 35,000 -341 Level Houston Center
Mon 07:10:46 PM 30.9739 -93.6347 219° Southwest 383 441 34,300 -1,597 Descending Houston Center
Mon 07:11:48 PM 30.8847 -93.7181 219° Southwest 399 459 31,700 -2,468 Descending Houston Center
Mon 07:12:50 PM 30.7986 -93.7994 219° Southwest 401 461 29,200 -2,371 Descending Houston Center
Mon 07:13:52 PM 30.7164 -93.8764 219° Southwest 386 444 26,800 -2,413 Descending Houston Center
Mon 07:14:22 PM 30.6728 -93.9203 221° Southwest 373 429 25,500 -2,226 Descending Houston Center
Mon 07:14:54 PM 30.6356 -93.9528 217° Southwest 377 434 24,500 -2,170 Descending Houston Center
Mon 07:15:56 PM 30.5567 -94.0275 219° Southwest 369 425 22,100 -2,457 Descending Houston Center
Mon 07:17:01 PM 30.4656 -94.1133 219° Southwest 347 399 19,300 -2,226 Descending Houston Center
Mon 07:18:00 PM 30.4072 -94.1667 218° Southwest 336 387 17,500 -2,132 Descending Houston Center
Mon 07:19:02 PM 30.3222 -94.2469 219° Southwest 329 379 15,000 -2,244 Descending Houston Center
Mon 07:20:03 PM 30.2489 -94.3147 219° Southwest 335 386 12,900 -1,463 Descending Houston Center
Mon 07:21:05 PM 30.1933 -94.3931 231° Southwest 324 373 12,000 -435 Descending Houston Center
Mon 07:22:07 PM 30.1753 -94.4892 258° West 320 368 12,000  Level Houston Center
Mon 07:23:14 PM 30.1533 -94.6144 259° West 323 372 12,000 -194 Level Houston Center
Mon 07:24:11 PM 30.1411 -94.6908 260° West 322 371 11,600 -1,138 Descending Houston Center
Mon 07:25:10 PM 30.1231 -94.7997 259° West 284 327 9,800 -1,850 Descending Houston Center
Mon 07:26:11 PM 30.1081 -94.8861 259° West 275 316 7,900 -1,619 Descending Houston Center
Mon 07:27:16 PM 30.1056 -94.9756 268° West 274 315 6,400 -898 Descending Houston Center
Mon 07:28:18 PM 30.1069 -95.0617 271° West 271 312 6,000 -194 Descending Houston Center
Mon 07:29:20 PM 30.1075 -95.1456 270° West 267 307 6,000  Level Houston Center
Mon 07:30:21 PM 30.1058 -95.2439 269° West 257 296 6,000  Level Houston Center
Mon 07:31:22 PM 30.1072 -95.3283 271° West 267 307 6,000 -313 Level Houston Center
Mon 07:32:16 PM 30.1061 -95.4081 269° West 261 300 5,400 -887 Descending Houston Center
Mon 07:33:17 PM 30.1069 -95.4853 271° West 243 280 4,300 -1,086 Descending Houston Center
Mon 07:34:12 PM 30.1072 -95.5578 270° West 240 276 3,300 -917 Descending Houston Center
Mon 07:34:29 PM 30.1069 -95.5669 268° West 241 277 3,200 -295 Descending Houston Center
Mon 07:35:13 PM 30.0894 -95.6178 248° West 203 234 3,000 -194 Descending Houston Center
Mon 07:35:31 PM 30.0828 -95.6192 190° South 231 266 3,000  Level Houston Center
Mon 07:36:14 PM 30.0378 -95.6264 188° South 177 204 3,000  Level Houston Center
Mon 07:36:32 PM 30.0319 -95.6269 185° South 200 230 3,000  Level Houston Center
Mon 07:37:21 PM 30.0006 -95.5872 132° Southeast 184 212 3,000  Level Houston Center
Mon 07:38:22 PM 29.9933 -95.5303 98° East 188 216 3,000 -492 Level Houston Center
Mon 07:39:23 PM 29.9922 -95.4703 91° East 189 217 2,000 -868 Descending Houston Center
Mon 07:39:38 PM 29.9931 -95.4589 85° East 186 214 1,900 -689 Descending Houston Center
Mon 07:40:24 PM 29.9922 -95.4244 92° East 118 136 1,300 -677 Descending Houston Center
Mon 07:40:40 PM 29.9936 -95.4139 81° East 161 185 1,200 -727 Descending Houston Center
Mon 07:41:30 PM 29.9919 -95.3761 93° East 127 146 500 -840 Descending Houston Center

Login

Don't have an account? Register now (free) for customized features, flight alerts, and more!